sensor_id;sensor_type;location;lat;lon;timestamp;P1;durP1;ratioP1;P2;durP2;ratioP2
75554;SDS011;66087;53.126;17.960;2024-03-23T00:51:22;12.90;;;4.70;;
75554;SDS011;66087;53.126;17.960;2024-03-23T00:53:49;13.80;;;4.60;;
75554;SDS011;66087;53.126;17.960;2024-03-23T00:56:15;16.70;;;5.90;;
75554;SDS011;66087;53.126;17.960;2024-03-23T00:58:42;14.00;;;5.20;;
75554;SDS011;66087;53.126;17.960;2024-03-23T01:01:09;15.10;;;4.70;;
75554;SDS011;66087;53.126;17.960;2024-03-23T01:03:35;15.10;;;5.20;;
75554;SDS011;66087;53.126;17.960;2024-03-23T01:06:02;17.50;;;5.60;;
75554;SDS011;66087;53.126;17.960;2024-03-23T01:08:30;16.60;;;4.50;;
75554;SDS011;66087;53.126;17.960;2024-03-23T01:10:57;14.70;;;5.20;;
75554;SDS011;66087;53.126;17.960;2024-03-23T01:13:26;14.10;;;4.30;;
75554;SDS011;66087;53.126;17.960;2024-03-23T01:15:54;17.70;;;4.30;;
75554;SDS011;66087;53.126;17.960;2024-03-23T01:18:22;16.40;;;4.40;;
75554;SDS011;66087;53.126;17.960;2024-03-23T01:20:50;14.60;;;4.50;;
75554;SDS011;66087;53.126;17.960;2024-03-23T01:23:16;16.20;;;5.40;;
75554;SDS011;66087;53.126;17.960;2024-03-23T01:25:50;13.30;;;4.70;;
75554;SDS011;66087;53.126;17.960;2024-03-23T01:28:20;19.30;;;5.10;;
75554;SDS011;66087;53.126;17.960;2024-03-23T01:30:48;16.90;;;5.10;;
75554;SDS011;66087;53.126;17.960;2024-03-23T01:33:15;13.80;;;6.20;;
75554;SDS011;66087;53.126;17.960;2024-03-23T01:35:41;14.90;;;6.10;;
75554;SDS011;66087;53.126;17.960;2024-03-23T01:38:08;16.50;;;5.30;;
75554;SDS011;66087;53.126;17.960;2024-03-23T01:40:34;12.20;;;3.80;;
75554;SDS011;66087;53.126;17.960;2024-03-23T01:43:03;13.90;;;4.00;;
75554;SDS011;66087;53.126;17.960;2024-03-23T01:45:31;14.20;;;5.00;;
75554;SDS011;66087;53.126;17.960;2024-03-23T01:47:58;16.30;;;5.50;;
75554;SDS011;66087;53.126;17.960;2024-03-23T01:50:27;15.80;;;5.80;;
75554;SDS011;66087;53.126;17.960;2024-03-23T01:53:00;14.10;;;5.50;;
75554;SDS011;66087;53.126;17.960;2024-03-23T01:55:28;16.80;;;5.40;;
75554;SDS011;66087;53.126;17.960;2024-03-23T01:57:56;15.50;;;5.90;;
75554;SDS011;66087;53.126;17.960;2024-03-23T02:00:25;16.90;;;5.90;;
75554;SDS011;66087;53.126;17.960;2024-03-23T02:02:54;13.90;;;4.70;;
75554;SDS011;66087;53.126;17.960;2024-03-23T02:05:21;14.40;;;5.20;;
75554;SDS011;66087;53.126;17.960;2024-03-23T02:07:48;15.30;;;5.00;;
75554;SDS011;66087;53.126;17.960;2024-03-23T02:10:18;12.00;;;5.50;;
75554;SDS011;66087;53.126;17.960;2024-03-23T02:12:45;14.80;;;4.60;;
75554;SDS011;66087;53.126;17.960;2024-03-23T02:15:12;19.30;;;4.00;;
75554;SDS011;66087;53.126;17.960;2024-03-23T02:17:42;15.20;;;5.20;;
75554;SDS011;66087;53.126;17.960;2024-03-23T02:20:11;18.30;;;5.90;;
75554;SDS011;66087;53.126;17.960;2024-03-23T02:22:39;17.00;;;6.10;;
75554;SDS011;66087;53.126;17.960;2024-03-23T02:25:06;17.60;;;5.50;;
75554;SDS011;66087;53.126;17.960;2024-03-23T02:27:34;15.30;;;4.40;;
75554;SDS011;66087;53.126;17.960;2024-03-23T02:30:02;13.60;;;3.60;;
75554;SDS011;66087;53.126;17.960;2024-03-23T02:32:29;15.20;;;3.60;;
75554;SDS011;66087;53.126;17.960;2024-03-23T02:34:55;18.50;;;4.80;;
75554;SDS011;66087;53.126;17.960;2024-03-23T02:37:22;12.60;;;4.00;;
75554;SDS011;66087;53.126;17.960;2024-03-23T02:39:50;16.40;;;4.20;;
75554;SDS011;66087;53.126;17.960;2024-03-23T02:42:17;15.20;;;4.00;;
75554;SDS011;66087;53.126;17.960;2024-03-23T02:44:44;11.70;;;3.30;;
75554;SDS011;66087;53.126;17.960;2024-03-23T02:47:11;14.90;;;5.40;;
75554;SDS011;66087;53.126;17.960;2024-03-23T02:49:38;12.00;;;4.70;;
75554;SDS011;66087;53.126;17.960;2024-03-23T02:52:09;12.00;;;4.30;;
75554;SDS011;66087;53.126;17.960;2024-03-23T02:54:35;17.30;;;4.50;;
75554;SDS011;66087;53.126;17.960;2024-03-23T02:57:02;13.70;;;4.10;;
75554;SDS011;66087;53.126;17.960;2024-03-23T02:59:29;16.20;;;3.20;;
75554;SDS011;66087;53.126;17.960;2024-03-23T03:01:55;11.90;;;3.70;;
75554;SDS011;66087;53.126;17.960;2024-03-23T03:04:22;13.30;;;3.20;;
75554;SDS011;66087;53.126;17.960;2024-03-23T03:06:49;14.10;;;2.80;;
75554;SDS011;66087;53.126;17.960;2024-03-23T03:09:15;11.50;;;2.90;;
75554;SDS011;66087;53.126;17.960;2024-03-23T03:11:43;10.60;;;3.10;;
75554;SDS011;66087;53.126;17.960;2024-03-23T03:14:10;15.20;;;4.10;;
75554;SDS011;66087;53.126;17.960;2024-03-23T03:16:37;9.50;;;2.80;;
75554;SDS011;66087;53.126;17.960;2024-03-23T03:19:04;13.40;;;3.50;;
75554;SDS011;66087;53.126;17.960;2024-03-23T03:21:33;12.50;;;3.20;;
75554;SDS011;66087;53.126;17.960;2024-03-23T03:24:01;12.90;;;4.30;;
75554;SDS011;66087;53.126;17.960;2024-03-23T03:26:28;17.40;;;4.70;;
75554;SDS011;66087;53.126;17.960;2024-03-23T03:28:55;12.20;;;3.50;;
75554;SDS011;66087;53.126;17.960;2024-03-23T03:31:21;15.50;;;3.70;;
75554;SDS011;66087;53.126;17.960;2024-03-23T03:33:49;12.20;;;3.50;;
75554;SDS011;66087;53.126;17.960;2024-03-23T03:36:17;10.50;;;3.80;;
75554;SDS011;66087;53.126;17.960;2024-03-23T03:38:43;12.70;;;4.60;;
75554;SDS011;66087;53.126;17.960;2024-03-23T03:41:10;11.50;;;3.70;;
75554;SDS011;66087;53.126;17.960;2024-03-23T03:43:37;12.90;;;3.70;;
75554;SDS011;66087;53.126;17.960;2024-03-23T03:46:05;14.40;;;5.30;;
75554;SDS011;66087;53.126;17.960;2024-03-23T03:48:34;14.90;;;5.20;;
75554;SDS011;66087;53.126;17.960;2024-03-23T03:51:01;16.90;;;4.80;;
75554;SDS011;66087;53.126;17.960;2024-03-23T03:53:28;10.70;;;3.10;;
75554;SDS011;66087;53.126;17.960;2024-03-23T03:55:54;13.40;;;4.90;;
75554;SDS011;66087;53.126;17.960;2024-03-23T03:58:25;13.60;;;4.80;;
75554;SDS011;66087;53.126;17.960;2024-03-23T04:00:51;15.60;;;4.40;;
75554;SDS011;66087;53.126;17.960;2024-03-23T04:03:18;12.60;;;4.30;;
75554;SDS011;66087;53.126;17.960;2024-03-23T04:05:53;14.40;;;4.10;;
75554;SDS011;66087;53.126;17.960;2024-03-23T04:08:21;13.00;;;4.50;;
75554;SDS011;66087;53.126;17.960;2024-03-23T04:10:49;14.60;;;4.10;;
75554;SDS011;66087;53.126;17.960;2024-03-23T04:13:16;16.20;;;5.80;;
75554;SDS011;66087;53.126;17.960;2024-03-23T04:15:42;16.10;;;5.70;;
75554;SDS011;66087;53.126;17.960;2024-03-23T04:18:11;13.40;;;3.60;;
75554;SDS011;66087;53.126;17.960;2024-03-23T04:20:38;14.60;;;4.90;;
75554;SDS011;66087;53.126;17.960;2024-03-23T04:23:05;13.10;;;4.10;;
75554;SDS011;66087;53.126;17.960;2024-03-23T04:25:32;13.70;;;4.90;;
75554;SDS011;66087;53.126;17.960;2024-03-23T04:27:59;14.60;;;4.70;;
75554;SDS011;66087;53.126;17.960;2024-03-23T04:30:25;16.80;;;4.80;;
75554;SDS011;66087;53.126;17.960;2024-03-23T04:32:55;18.40;;;5.10;;
75554;SDS011;66087;53.126;17.960;2024-03-23T04:35:23;14.10;;;5.40;;
75554;SDS011;66087;53.126;17.960;2024-03-23T04:37:51;16.50;;;4.90;;
75554;SDS011;66087;53.126;17.960;2024-03-23T04:40:19;12.70;;;4.20;;
75554;SDS011;66087;53.126;17.960;2024-03-23T04:42:46;18.80;;;5.30;;
75554;SDS011;66087;53.126;17.960;2024-03-23T04:45:13;15.30;;;4.20;;
75554;SDS011;66087;53.126;17.960;2024-03-23T04:47:42;14.00;;;4.20;;
75554;SDS011;66087;53.126;17.960;2024-03-23T04:50:10;16.90;;;4.90;;
75554;SDS011;66087;53.126;17.960;2024-03-23T04:52:38;19.80;;;4.30;;
75554;SDS011;66087;53.126;17.960;2024-03-23T04:55:05;13.00;;;3.60;;
75554;SDS011;66087;53.126;17.960;2024-03-23T04:57:32;17.40;;;3.80;;
75554;SDS011;66087;53.126;17.960;2024-03-23T04:59:59;18.90;;;6.10;;
75554;SDS011;66087;53.126;17.960;2024-03-23T05:02:26;11.10;;;4.00;;
75554;SDS011;66087;53.126;17.960;2024-03-23T05:04:53;11.20;;;3.20;;
75554;SDS011;66087;53.126;17.960;2024-03-23T05:07:20;11.60;;;3.40;;
75554;SDS011;66087;53.126;17.960;2024-03-23T05:09:47;13.90;;;3.30;;
75554;SDS011;66087;53.126;17.960;2024-03-23T05:12:17;13.90;;;3.90;;
75554;SDS011;66087;53.126;17.960;2024-03-23T05:14:44;10.90;;;3.40;;
75554;SDS011;66087;53.126;17.960;2024-03-23T05:17:11;13.30;;;4.20;;
75554;SDS011;66087;53.126;17.960;2024-03-23T05:19:37;15.60;;;4.10;;
75554;SDS011;66087;53.126;17.960;2024-03-23T05:22:04;12.20;;;4.50;;
75554;SDS011;66087;53.126;17.960;2024-03-23T05:24:32;17.60;;;4.50;;
75554;SDS011;66087;53.126;17.960;2024-03-23T05:26:59;14.20;;;5.20;;
75554;SDS011;66087;53.126;17.960;2024-03-23T05:29:26;17.70;;;5.70;;
75554;SDS011;66087;53.126;17.960;2024-03-23T05:31:53;13.20;;;3.90;;
75554;SDS011;66087;53.126;17.960;2024-03-23T05:34:22;16.20;;;3.80;;
75554;SDS011;66087;53.126;17.960;2024-03-23T05:36:50;11.30;;;3.50;;
75554;SDS011;66087;53.126;17.960;2024-03-23T05:39:20;13.10;;;3.90;;
75554;SDS011;66087;53.126;17.960;2024-03-23T05:41:48;17.50;;;5.40;;
75554;SDS011;66087;53.126;17.960;2024-03-23T05:44:15;14.60;;;5.70;;
75554;SDS011;66087;53.126;17.960;2024-03-23T05:46:42;15.60;;;6.00;;
75554;SDS011;66087;53.126;17.960;2024-03-23T05:49:08;16.40;;;5.80;;
75554;SDS011;66087;53.126;17.960;2024-03-23T05:51:35;14.50;;;5.60;;
75554;SDS011;66087;53.126;17.960;2024-03-23T05:54:02;15.30;;;4.60;;
75554;SDS011;66087;53.126;17.960;2024-03-23T05:56:28;13.30;;;5.00;;
75554;SDS011;66087;53.126;17.960;2024-03-23T05:58:55;11.30;;;4.00;;
75554;SDS011;66087;53.126;17.960;2024-03-23T06:01:22;12.80;;;3.70;;
75554;SDS011;66087;53.126;17.960;2024-03-23T06:03:49;11.70;;;3.30;;
75554;SDS011;66087;53.126;17.960;2024-03-23T06:06:15;16.60;;;4.90;;
75554;SDS011;66087;53.126;17.960;2024-03-23T06:08:43;11.00;;;4.00;;
75554;SDS011;66087;53.126;17.960;2024-03-23T06:11:12;15.90;;;4.20;;
75554;SDS011;66087;53.126;17.960;2024-03-23T06:13:39;11.70;;;4.70;;
75554;SDS011;66087;53.126;17.960;2024-03-23T06:16:05;11.80;;;4.40;;
75554;SDS011;66087;53.126;17.960;2024-03-23T06:18:33;12.40;;;4.20;;
75554;SDS011;66087;53.126;17.960;2024-03-23T06:20:59;12.60;;;3.50;;
75554;SDS011;66087;53.126;17.960;2024-03-23T06:23:26;14.60;;;4.30;;
75554;SDS011;66087;53.126;17.960;2024-03-23T06:25:56;13.10;;;3.70;;
75554;SDS011;66087;53.126;17.960;2024-03-23T06:28:27;13.90;;;4.40;;
75554;SDS011;66087;53.126;17.960;2024-03-23T06:30:53;12.30;;;4.20;;
75554;SDS011;66087;53.126;17.960;2024-03-23T06:33:20;13.60;;;3.70;;
75554;SDS011;66087;53.126;17.960;2024-03-23T06:35:50;15.40;;;4.00;;
75554;SDS011;66087;53.126;17.960;2024-03-23T06:38:18;13.60;;;3.90;;
75554;SDS011;66087;53.126;17.960;2024-03-23T06:40:45;13.00;;;4.60;;
75554;SDS011;66087;53.126;17.960;2024-03-23T06:43:16;13.10;;;3.90;;
75554;SDS011;66087;53.126;17.960;2024-03-23T06:45:44;15.10;;;4.30;;
75554;SDS011;66087;53.126;17.960;2024-03-23T06:48:18;17.00;;;4.30;;
75554;SDS011;66087;53.126;17.960;2024-03-23T06:50:47;21.90;;;4.90;;
75554;SDS011;66087;53.126;17.960;2024-03-23T06:53:14;18.80;;;5.10;;
75554;SDS011;66087;53.126;17.960;2024-03-23T06:55:42;17.40;;;5.20;;
75554;SDS011;66087;53.126;17.960;2024-03-23T06:58:16;19.40;;;6.10;;
75554;SDS011;66087;53.126;17.960;2024-03-23T07:00:43;15.10;;;4.80;;
75554;SDS011;66087;53.126;17.960;2024-03-23T07:03:10;16.40;;;5.40;;
75554;SDS011;66087;53.126;17.960;2024-03-23T07:05:37;24.40;;;6.20;;
75554;SDS011;66087;53.126;17.960;2024-03-23T07:08:04;28.10;;;7.40;;
75554;SDS011;66087;53.126;17.960;2024-03-23T07:10:32;18.00;;;5.90;;
75554;SDS011;66087;53.126;17.960;2024-03-23T07:12:58;16.10;;;5.30;;
75554;SDS011;66087;53.126;17.960;2024-03-23T07:15:25;15.70;;;4.70;;
75554;SDS011;66087;53.126;17.960;2024-03-23T07:17:52;13.30;;;5.10;;
75554;SDS011;66087;53.126;17.960;2024-03-23T07:20:18;15.60;;;3.80;;
75554;SDS011;66087;53.126;17.960;2024-03-23T07:22:46;12.10;;;3.90;;
75554;SDS011;66087;53.126;17.960;2024-03-23T07:25:13;10.10;;;2.90;;
75554;SDS011;66087;53.126;17.960;2024-03-23T07:27:42;11.50;;;3.40;;
75554;SDS011;66087;53.126;17.960;2024-03-23T07:30:09;11.70;;;3.60;;
75554;SDS011;66087;53.126;17.960;2024-03-23T07:32:36;10.60;;;3.80;;
75554;SDS011;66087;53.126;17.960;2024-03-23T07:35:03;14.00;;;4.90;;
75554;SDS011;66087;53.126;17.960;2024-03-23T07:37:31;13.70;;;4.00;;
75554;SDS011;66087;53.126;17.960;2024-03-23T07:39:58;19.30;;;6.80;;
75554;SDS011;66087;53.126;17.960;2024-03-23T07:42:26;18.10;;;6.80;;
75554;SDS011;66087;53.126;17.960;2024-03-23T07:44:52;17.20;;;6.30;;
75554;SDS011;66087;53.126;17.960;2024-03-23T07:47:21;24.00;;;7.90;;
75554;SDS011;66087;53.126;17.960;2024-03-23T07:49:47;18.20;;;5.70;;
75554;SDS011;66087;53.126;17.960;2024-03-23T07:52:14;19.40;;;6.40;;
75554;SDS011;66087;53.126;17.960;2024-03-23T07:54:41;18.40;;;6.10;;
75554;SDS011;66087;53.126;17.960;2024-03-23T07:57:08;18.30;;;6.00;;
75554;SDS011;66087;53.126;17.960;2024-03-23T07:59:35;16.60;;;6.20;;
75554;SDS011;66087;53.126;17.960;2024-03-23T08:02:02;16.00;;;6.30;;
75554;SDS011;66087;53.126;17.960;2024-03-23T08:04:29;18.90;;;4.90;;
75554;SDS011;66087;53.126;17.960;2024-03-23T08:06:56;15.10;;;5.60;;
75554;SDS011;66087;53.126;17.960;2024-03-23T08:09:25;13.60;;;5.60;;
75554;SDS011;66087;53.126;17.960;2024-03-23T08:11:52;15.20;;;5.60;;
75554;SDS011;66087;53.126;17.960;2024-03-23T08:14:18;20.00;;;6.40;;
75554;SDS011;66087;53.126;17.960;2024-03-23T08:16:45;12.60;;;4.80;;
75554;SDS011;66087;53.126;17.960;2024-03-23T08:19:14;15.10;;;5.10;;
75554;SDS011;66087;53.126;17.960;2024-03-23T08:21:41;12.10;;;4.20;;
75554;SDS011;66087;53.126;17.960;2024-03-23T08:24:08;14.50;;;4.10;;
75554;SDS011;66087;53.126;17.960;2024-03-23T08:26:35;14.40;;;3.90;;
75554;SDS011;66087;53.126;17.960;2024-03-23T08:29:03;13.00;;;4.50;;
75554;SDS011;66087;53.126;17.960;2024-03-23T08:31:31;15.80;;;5.10;;
75554;SDS011;66087;53.126;17.960;2024-03-23T08:33:57;14.60;;;4.60;;
75554;SDS011;66087;53.126;17.960;2024-03-23T08:36:24;12.30;;;4.40;;
75554;SDS011;66087;53.126;17.960;2024-03-23T08:38:51;10.00;;;2.30;;
75554;SDS011;66087;53.126;17.960;2024-03-23T08:41:22;8.60;;;3.00;;
75554;SDS011;66087;53.126;17.960;2024-03-23T08:43:50;8.80;;;2.40;;
75554;SDS011;66087;53.126;17.960;2024-03-23T08:46:18;10.90;;;2.60;;
75554;SDS011;66087;53.126;17.960;2024-03-23T08:48:45;10.50;;;2.90;;
75554;SDS011;66087;53.126;17.960;2024-03-23T08:51:14;11.40;;;2.80;;
75554;SDS011;66087;53.126;17.960;2024-03-23T08:53:41;9.30;;;2.00;;
75554;SDS011;66087;53.126;17.960;2024-03-23T08:56:13;12.40;;;3.70;;
75554;SDS011;66087;53.126;17.960;2024-03-23T08:58:42;9.20;;;2.90;;
75554;SDS011;66087;53.126;17.960;2024-03-23T09:01:09;8.90;;;2.40;;
75554;SDS011;66087;53.126;17.960;2024-03-23T09:03:38;8.40;;;2.40;;
75554;SDS011;66087;53.126;17.960;2024-03-23T09:06:06;9.20;;;2.60;;
75554;SDS011;66087;53.126;17.960;2024-03-23T09:08:34;8.40;;;2.40;;
75554;SDS011;66087;53.126;17.960;2024-03-23T09:11:04;9.00;;;2.70;;
75554;SDS011;66087;53.126;17.960;2024-03-23T09:13:33;9.50;;;2.50;;
75554;SDS011;66087;53.126;17.960;2024-03-23T09:16:04;9.90;;;3.00;;
75554;SDS011;66087;53.126;17.960;2024-03-23T09:18:32;8.60;;;2.40;;
75554;SDS011;66087;53.126;17.960;2024-03-23T09:21:02;9.10;;;2.50;;
75554;SDS011;66087;53.126;17.960;2024-03-23T09:23:30;7.60;;;2.20;;
75554;SDS011;66087;53.126;17.960;2024-03-23T09:25:56;6.70;;;1.90;;
75554;SDS011;66087;53.126;17.960;2024-03-23T09:28:23;6.20;;;2.00;;
75554;SDS011;66087;53.126;17.960;2024-03-23T09:30:50;4.90;;;1.80;;
75554;SDS011;66087;53.126;17.960;2024-03-23T09:33:17;9.30;;;2.30;;
75554;SDS011;66087;53.126;17.960;2024-03-23T09:35:45;6.10;;;1.80;;
75554;SDS011;66087;53.126;17.960;2024-03-23T09:38:13;5.70;;;1.20;;
75554;SDS011;66087;53.126;17.960;2024-03-23T09:40:40;4.60;;;1.60;;
75554;SDS011;66087;53.126;17.960;2024-03-23T09:43:09;6.10;;;1.80;;
75554;SDS011;66087;53.126;17.960;2024-03-23T09:45:38;6.80;;;2.10;;
75554;SDS011;66087;53.126;17.960;2024-03-23T09:48:08;5.20;;;1.60;;
75554;SDS011;66087;53.126;17.960;2024-03-23T09:50:37;6.70;;;2.60;;
75554;SDS011;66087;53.126;17.960;2024-03-23T09:53:06;6.80;;;1.70;;
75554;SDS011;66087;53.126;17.960;2024-03-23T09:55:34;6.20;;;1.70;;
75554;SDS011;66087;53.126;17.960;2024-03-23T09:58:02;6.60;;;1.90;;
75554;SDS011;66087;53.126;17.960;2024-03-23T10:00:31;5.50;;;2.10;;
75554;SDS011;66087;53.126;17.960;2024-03-23T10:03:01;7.30;;;2.30;;
75554;SDS011;66087;53.126;17.960;2024-03-23T10:05:29;5.40;;;2.30;;
75554;SDS011;66087;53.126;17.960;2024-03-23T10:07:58;5.40;;;1.60;;
75554;SDS011;66087;53.126;17.960;2024-03-23T10:10:25;7.10;;;2.50;;
75554;SDS011;66087;53.126;17.960;2024-03-23T10:12:52;6.40;;;2.50;;
75554;SDS011;66087;53.126;17.960;2024-03-23T10:15:19;5.80;;;2.20;;
75554;SDS011;66087;53.126;17.960;2024-03-23T10:17:48;6.40;;;1.70;;
75554;SDS011;66087;53.126;17.960;2024-03-23T10:20:22;5.30;;;1.50;;
75554;SDS011;66087;53.126;17.960;2024-03-23T10:22:50;5.00;;;1.30;;
75554;SDS011;66087;53.126;17.960;2024-03-23T10:25:22;6.90;;;2.10;;
75554;SDS011;66087;53.126;17.960;2024-03-23T10:27:58;6.80;;;1.20;;
75554;SDS011;66087;53.126;17.960;2024-03-23T10:30:26;4.40;;;1.00;;
75554;SDS011;66087;53.126;17.960;2024-03-23T10:33:06;5.90;;;1.80;;
75554;SDS011;66087;53.126;17.960;2024-03-23T10:35:34;4.40;;;1.20;;
75554;SDS011;66087;53.126;17.960;2024-03-23T10:38:02;4.50;;;1.50;;
75554;SDS011;66087;53.126;17.960;2024-03-23T10:40:31;5.00;;;1.10;;
75554;SDS011;66087;53.126;17.960;2024-03-23T10:43:03;4.40;;;1.10;;
75554;SDS011;66087;53.126;17.960;2024-03-23T10:45:31;3.60;;;1.40;;
75554;SDS011;66087;53.126;17.960;2024-03-23T10:47:59;5.10;;;1.50;;
75554;SDS011;66087;53.126;17.960;2024-03-23T10:50:27;2.60;;;1.00;;
75554;SDS011;66087;53.126;17.960;2024-03-23T10:52:54;2.60;;;0.90;;
75554;SDS011;66087;53.126;17.960;2024-03-23T10:55:25;3.80;;;1.00;;
75554;SDS011;66087;53.126;17.960;2024-03-23T10:57:54;5.20;;;1.60;;
75554;SDS011;66087;53.126;17.960;2024-03-23T11:00:24;7.10;;;2.70;;
75554;SDS011;66087;53.126;17.960;2024-03-23T11:02:52;8.20;;;2.60;;
75554;SDS011;66087;53.126;17.960;2024-03-23T11:05:28;6.60;;;2.10;;
75554;SDS011;66087;53.126;17.960;2024-03-23T11:07:56;8.60;;;2.60;;
75554;SDS011;66087;53.126;17.960;2024-03-23T11:10:25;7.10;;;2.80;;
75554;SDS011;66087;53.126;17.960;2024-03-23T11:12:56;7.60;;;2.70;;
75554;SDS011;66087;53.126;17.960;2024-03-23T11:15:23;7.80;;;3.30;;
75554;SDS011;66087;53.126;17.960;2024-03-23T11:20:31;6.90;;;2.20;;
75554;SDS011;66087;53.126;17.960;2024-03-23T11:22:59;7.00;;;1.80;;
75554;SDS011;66087;53.126;17.960;2024-03-23T11:25:26;8.00;;;2.50;;
75554;SDS011;66087;53.126;17.960;2024-03-23T11:27:56;9.00;;;2.60;;
75554;SDS011;66087;53.126;17.960;2024-03-23T11:30:25;8.90;;;2.70;;
75554;SDS011;66087;53.126;17.960;2024-03-23T11:32:54;10.80;;;2.30;;
75554;SDS011;66087;53.126;17.960;2024-03-23T11:35:25;8.10;;;3.20;;
75554;SDS011;66087;53.126;17.960;2024-03-23T11:40:48;11.40;;;3.60;;
75554;SDS011;66087;53.126;17.960;2024-03-23T11:43:16;7.00;;;1.90;;
75554;SDS011;66087;53.126;17.960;2024-03-23T11:45:46;8.30;;;1.80;;
75554;SDS011;66087;53.126;17.960;2024-03-23T11:48:16;8.00;;;1.70;;
75554;SDS011;66087;53.126;17.960;2024-03-23T11:50:46;5.90;;;2.10;;
75554;SDS011;66087;53.126;17.960;2024-03-23T11:53:15;5.10;;;1.30;;
75554;SDS011;66087;53.126;17.960;2024-03-23T11:55:50;6.30;;;2.00;;
75554;SDS011;66087;53.126;17.960;2024-03-23T11:58:20;6.10;;;1.70;;
75554;SDS011;66087;53.126;17.960;2024-03-23T12:03:26;5.70;;;1.70;;
75554;SDS011;66087;53.126;17.960;2024-03-23T12:05:58;6.80;;;2.40;;
75554;SDS011;66087;53.126;17.960;2024-03-23T12:08:34;7.70;;;1.90;;
75554;SDS011;66087;53.126;17.960;2024-03-23T12:11:06;9.80;;;2.90;;
75554;SDS011;66087;53.126;17.960;2024-03-23T12:13:36;8.40;;;2.30;;
75554;SDS011;66087;53.126;17.960;2024-03-23T12:16:11;8.30;;;2.80;;
75554;SDS011;66087;53.126;17.960;2024-03-23T12:18:41;7.60;;;3.00;;
75554;SDS011;66087;53.126;17.960;2024-03-23T12:21:09;10.20;;;3.30;;
75554;SDS011;66087;53.126;17.960;2024-03-23T12:23:38;11.10;;;3.80;;
75554;SDS011;66087;53.126;17.960;2024-03-23T12:26:06;11.30;;;3.10;;
75554;SDS011;66087;53.126;17.960;2024-03-23T12:28:35;8.30;;;3.30;;
75554;SDS011;66087;53.126;17.960;2024-03-23T12:31:03;7.80;;;3.10;;
75554;SDS011;66087;53.126;17.960;2024-03-23T12:33:31;9.80;;;2.60;;
75554;SDS011;66087;53.126;17.960;2024-03-23T12:35:58;8.50;;;2.70;;
75554;SDS011;66087;53.126;17.960;2024-03-23T12:38:24;9.40;;;2.70;;
75554;SDS011;66087;53.126;17.960;2024-03-23T12:40:52;6.50;;;2.70;;
75554;SDS011;66087;53.126;17.960;2024-03-23T12:43:19;6.90;;;2.60;;
75554;SDS011;66087;53.126;17.960;2024-03-23T12:45:47;9.80;;;3.50;;
75554;SDS011;66087;53.126;17.960;2024-03-23T12:48:16;7.80;;;3.30;;
75554;SDS011;66087;53.126;17.960;2024-03-23T12:50:43;7.40;;;3.00;;
75554;SDS011;66087;53.126;17.960;2024-03-23T12:53:10;10.50;;;3.90;;
75554;SDS011;66087;53.126;17.960;2024-03-23T12:55:38;10.30;;;3.70;;
75554;SDS011;66087;53.126;17.960;2024-03-23T12:58:05;9.40;;;2.80;;
75554;SDS011;66087;53.126;17.960;2024-03-23T13:00:32;11.20;;;3.60;;
75554;SDS011;66087;53.126;17.960;2024-03-23T13:02:58;7.00;;;2.40;;
75554;SDS011;66087;53.126;17.960;2024-03-23T13:05:25;10.50;;;3.50;;
75554;SDS011;66087;53.126;17.960;2024-03-23T13:07:52;6.90;;;2.90;;
75554;SDS011;66087;53.126;17.960;2024-03-23T13:10:18;6.40;;;2.20;;
75554;SDS011;66087;53.126;17.960;2024-03-23T13:12:45;5.70;;;2.00;;
75554;SDS011;66087;53.126;17.960;2024-03-23T13:15:11;7.20;;;2.40;;
75554;SDS011;66087;53.126;17.960;2024-03-23T13:17:38;7.70;;;3.50;;
75554;SDS011;66087;53.126;17.960;2024-03-23T13:20:05;8.00;;;2.70;;
75554;SDS011;66087;53.126;17.960;2024-03-23T13:22:32;8.80;;;3.90;;
75554;SDS011;66087;53.126;17.960;2024-03-23T13:24:59;10.50;;;4.40;;
75554;SDS011;66087;53.126;17.960;2024-03-23T13:27:26;8.70;;;3.50;;
75554;SDS011;66087;53.126;17.960;2024-03-23T13:29:54;7.30;;;3.00;;
75554;SDS011;66087;53.126;17.960;2024-03-23T13:32:21;15.30;;;7.10;;
75554;SDS011;66087;53.126;17.960;2024-03-23T13:34:48;10.40;;;4.80;;
75554;SDS011;66087;53.126;17.960;2024-03-23T13:37:16;11.50;;;4.70;;
75554;SDS011;66087;53.126;17.960;2024-03-23T13:39:43;7.60;;;2.50;;
75554;SDS011;66087;53.126;17.960;2024-03-23T13:42:10;8.70;;;2.70;;
75554;SDS011;66087;53.126;17.960;2024-03-23T13:44:39;10.80;;;2.90;;
75554;SDS011;66087;53.126;17.960;2024-03-23T13:47:06;6.80;;;2.30;;
75554;SDS011;66087;53.126;17.960;2024-03-23T13:49:33;6.90;;;2.20;;
75554;SDS011;66087;53.126;17.960;2024-03-23T13:52:00;9.40;;;3.40;;
75554;SDS011;66087;53.126;17.960;2024-03-23T13:54:26;10.50;;;4.10;;
75554;SDS011;66087;53.126;17.960;2024-03-23T13:56:54;8.20;;;3.20;;
75554;SDS011;66087;53.126;17.960;2024-03-23T13:59:22;8.90;;;3.20;;
75554;SDS011;66087;53.126;17.960;2024-03-23T14:01:51;8.20;;;1.80;;
75554;SDS011;66087;53.126;17.960;2024-03-23T14:04:20;7.20;;;2.60;;
75554;SDS011;66087;53.126;17.960;2024-03-23T14:06:47;6.60;;;2.30;;
75554;SDS011;66087;53.126;17.960;2024-03-23T14:09:16;5.70;;;1.50;;
75554;SDS011;66087;53.126;17.960;2024-03-23T14:11:47;4.00;;;1.70;;
75554;SDS011;66087;53.126;17.960;2024-03-23T14:14:14;5.70;;;1.90;;
75554;SDS011;66087;53.126;17.960;2024-03-23T14:16:43;4.40;;;1.10;;
75554;SDS011;66087;53.126;17.960;2024-03-23T14:19:11;4.70;;;1.40;;
75554;SDS011;66087;53.126;17.960;2024-03-23T14:21:38;4.30;;;1.20;;
75554;SDS011;66087;53.126;17.960;2024-03-23T14:24:07;4.80;;;1.50;;
75554;SDS011;66087;53.126;17.960;2024-03-23T14:26:35;7.20;;;1.40;;
75554;SDS011;66087;53.126;17.960;2024-03-23T14:29:05;4.90;;;1.80;;
75554;SDS011;66087;53.126;17.960;2024-03-23T14:31:34;4.20;;;1.30;;
75554;SDS011;66087;53.126;17.960;2024-03-23T14:34:02;6.00;;;2.10;;
75554;SDS011;66087;53.126;17.960;2024-03-23T14:36:29;5.20;;;1.50;;
75554;SDS011;66087;53.126;17.960;2024-03-23T14:38:58;4.20;;;1.00;;
75554;SDS011;66087;53.126;17.960;2024-03-23T14:41:25;7.00;;;2.70;;
75554;SDS011;66087;53.126;17.960;2024-03-23T14:43:52;10.00;;;3.20;;
75554;SDS011;66087;53.126;17.960;2024-03-23T14:46:20;9.40;;;2.80;;
75554;SDS011;66087;53.126;17.960;2024-03-23T14:48:47;10.20;;;3.00;;
75554;SDS011;66087;53.126;17.960;2024-03-23T14:51:14;7.20;;;2.20;;
75554;SDS011;66087;53.126;17.960;2024-03-23T14:53:41;8.20;;;2.40;;
75554;SDS011;66087;53.126;17.960;2024-03-23T14:56:11;10.50;;;3.10;;
75554;SDS011;66087;53.126;17.960;2024-03-23T14:58:41;8.80;;;2.80;;
75554;SDS011;66087;53.126;17.960;2024-03-23T15:01:08;7.80;;;2.00;;
75554;SDS011;66087;53.126;17.960;2024-03-23T15:03:36;11.40;;;3.60;;
75554;SDS011;66087;53.126;17.960;2024-03-23T15:06:05;11.60;;;3.70;;
75554;SDS011;66087;53.126;17.960;2024-03-23T15:08:35;8.50;;;2.20;;
75554;SDS011;66087;53.126;17.960;2024-03-23T15:11:04;6.20;;;1.60;;
75554;SDS011;66087;53.126;17.960;2024-03-23T15:13:33;7.30;;;2.20;;
75554;SDS011;66087;53.126;17.960;2024-03-23T15:16:00;5.70;;;2.10;;
75554;SDS011;66087;53.126;17.960;2024-03-23T15:18:27;4.70;;;1.70;;
75554;SDS011;66087;53.126;17.960;2024-03-23T15:20:56;7.20;;;2.00;;
75554;SDS011;66087;53.126;17.960;2024-03-23T15:23:29;6.10;;;2.30;;
75554;SDS011;66087;53.126;17.960;2024-03-23T15:25:57;6.60;;;1.50;;
75554;SDS011;66087;53.126;17.960;2024-03-23T15:28:25;6.80;;;2.70;;